Time;durP1;ratioP1;P1;durP2;ratioP2;P2;SDS_P1;SDS_P2;PMS_P1;PMS_P2;Temp;Humidity;BMP_temperature;BMP_pressure;BME280_temperature;BME280_humidity;BME280_pressure;Samples;Min_cycle;Max_cycle;Signal;HPM_P1;HPM_P2
2023/11/26 00:02:03;;;;;;;3.85;2.55;;;;;;;-0.32;100.00;96551.25;1224368;75;2927950;-63
2023/11/26 00:04:37;;;;;;;4.10;2.60;;;;;;;-0.20;100.00;96537.03;1225636;75;2923078;-64
2023/11/26 00:07:09;;;;;;;3.60;2.15;;;;;;;-0.26;100.00;96534.16;1225615;75;2917102;-62
2023/11/26 00:09:42;;;;;;;3.75;2.00;;;;;;;-0.27;100.00;96529.19;1225150;83;2961599;-62
2023/11/26 00:12:15;;;;;;;2.70;1.65;;;;;;;-0.30;100.00;96541.56;1225458;75;2916663;-65
2023/11/26 00:14:50;;;;;;;3.75;2.00;;;;;;;-0.65;100.00;96548.72;1225905;75;2914205;-64
2023/11/26 00:17:21;;;;;;;5.45;2.80;;;;;;;-0.57;100.00;96555.41;1225245;75;2918969;-62
2023/11/26 00:19:54;;;;;;;3.30;2.30;;;;;;;-0.49;100.00;96564.78;1225721;75;2915995;-65
2023/11/26 00:22:28;;;;;;;4.50;3.00;;;;;;;-0.89;100.00;96567.06;1225191;75;2914110;-65
2023/11/26 00:25:01;;;;;;;6.20;4.25;;;;;;;-0.83;100.00;96561.94;1226039;75;2904962;-66
2023/11/26 00:27:34;;;;;;;6.55;3.90;;;;;;;-0.90;100.00;96560.94;1225832;75;2925569;-63
2023/11/26 00:30:11;;;;;;;9.10;4.75;;;;;;;-1.02;100.00;96568.97;1225423;75;2914708;-66
2023/11/26 00:32:43;;;;;;;7.30;4.65;;;;;;;-1.18;100.00;96565.16;1225284;75;2910842;-62
2023/11/26 00:35:17;;;;;;;6.70;4.15;;;;;;;-1.36;100.00;96570.22;1224881;75;2916476;-65
2023/11/26 00:37:50;;;;;;;6.65;4.15;;;;;;;-1.15;100.00;96566.25;1226003;75;2910965;-63
2023/11/26 00:40:24;;;;;;;6.95;4.15;;;;;;;-1.14;100.00;96557.00;1225769;75;2914593;-62
2023/11/26 00:42:57;;;;;;;6.20;3.95;;;;;;;-0.97;100.00;96555.75;1224271;75;2919924;-63
2023/11/26 00:45:32;;;;;;;4.70;2.95;;;;;;;-0.95;100.00;96566.09;1225621;75;2922160;-66
2023/11/26 00:48:05;;;;;;;3.70;2.65;;;;;;;-1.01;100.00;96571.22;1225599;75;2926046;-65
2023/11/26 00:50:39;;;;;;;3.45;2.20;;;;;;;-1.24;100.00;96566.84;1224508;75;2916949;-64
2023/11/26 00:53:12;;;;;;;5.05;2.70;;;;;;;-1.30;100.00;96573.88;1226042;75;2912818;-63
2023/11/26 00:55:45;;;;;;;3.55;2.60;;;;;;;-1.44;100.00;96571.56;1226074;75;2916533;-63
2023/11/26 00:58:19;;;;;;;3.90;2.75;;;;;;;-1.38;100.00;96581.38;1223968;75;2913064;-65
2023/11/26 01:00:54;;;;;;;3.60;2.30;;;;;;;-1.45;100.00;96589.59;1226213;75;2909847;-64
2023/11/26 01:03:27;;;;;;;3.15;2.30;;;;;;;-1.39;100.00;96587.94;1226146;75;2919323;-63
2023/11/26 01:06:00;;;;;;;3.05;2.45;;;;;;;-1.30;100.00;96601.50;1225832;75;2918631;-63
2023/11/26 01:08:33;;;;;;;6.40;4.20;;;;;;;-1.80;100.00;96602.72;1225757;75;2917070;-62
2023/11/26 01:11:07;;;;;;;6.80;4.30;;;;;;;-1.68;100.00;96595.16;1224595;75;2916515;-62
2023/11/26 01:13:40;;;;;;;5.25;2.90;;;;;;;-1.53;100.00;96594.41;1225844;75;2915280;-64
2023/11/26 01:16:17;;;;;;;4.05;2.55;;;;;;;-1.39;100.00;96598.66;1225977;75;2916557;-64
2023/11/26 01:18:49;;;;;;;3.20;1.90;;;;;;;-1.41;100.00;96602.97;1225520;75;2919859;-63
2023/11/26 01:21:23;;;;;;;3.15;2.15;;;;;;;-1.56;100.00;96599.88;1225867;75;2927452;-65
2023/11/26 01:23:56;;;;;;;2.55;1.90;;;;;;;-1.60;100.00;96604.56;1223578;75;2917672;-62
2023/11/26 01:26:28;;;;;;;3.00;1.95;;;;;;;-1.46;100.00;96612.28;1225280;75;2919470;-63
2023/11/26 01:29:01;;;;;;;2.95;2.40;;;;;;;-1.81;100.00;96614.59;1225665;75;2919122;-62
2023/11/26 01:31:37;;;;;;;2.85;2.30;;;;;;;-1.78;100.00;96602.28;1225700;75;2925051;-64
2023/11/26 01:34:10;;;;;;;2.60;2.15;;;;;;;-1.62;100.00;96607.66;1225682;75;2917622;-64
2023/11/26 01:36:45;;;;;;;2.80;2.05;;;;;;;-1.72;100.00;96609.41;1225373;75;2920738;-66
2023/11/26 01:39:18;;;;;;;2.70;2.20;;;;;;;-1.73;100.00;96613.28;1224985;75;2917739;-64
2023/11/26 01:41:51;;;;;;;3.70;2.10;;;;;;;-1.68;100.00;96612.03;1225373;75;2929894;-63
2023/11/26 01:44:24;;;;;;;3.10;1.90;;;;;;;-1.70;100.00;96619.00;1225822;75;2931036;-62
2023/11/26 01:47:02;;;;;;;2.45;1.70;;;;;;;-1.89;100.00;96625.94;1225250;75;2935715;-64
2023/11/26 01:49:35;;;;;;;4.30;2.50;;;;;;;-2.10;100.00;96617.19;1225914;67;2918811;-64
2023/11/26 01:52:13;;;;;;;4.10;2.40;;;;;;;-2.06;100.00;96611.75;1224365;75;2908806;-64
2023/11/26 01:54:47;;;;;;;2.90;2.40;;;;;;;-2.12;100.00;96608.78;1225613;75;2924594;-64
2023/11/26 01:57:21;;;;;;;2.50;2.30;;;;;;;-1.93;100.00;96620.63;1225558;75;2916305;-63
2023/11/26 01:59:54;;;;;;;2.70;1.90;;;;;;;-1.85;100.00;96626.59;1225767;75;2923430;-64
2023/11/26 02:02:29;;;;;;;2.80;1.80;;;;;;;-1.93;100.00;96626.75;1224924;75;2915979;-63
2023/11/26 02:05:02;;;;;;;2.55;1.75;;;;;;;-1.89;100.00;96624.00;1225241;75;2921435;-62
2023/11/26 02:07:35;;;;;;;2.85;1.80;;;;;;;-1.92;100.00;96627.53;1226073;75;2918081;-65
2023/11/26 02:10:11;;;;;;;2.50;2.00;;;;;;;-1.95;100.00;96631.03;1224985;75;2917340;-66
2023/11/26 02:12:44;;;;;;;3.80;2.05;;;;;;;-1.92;100.00;96622.16;1225178;75;2932291;-64
2023/11/26 02:15:16;;;;;;;4.60;2.45;;;;;;;-1.59;100.00;96636.34;1224770;75;2921099;-62
2023/11/26 02:17:52;;;;;;;4.35;2.30;;;;;;;-1.27;100.00;96640.19;1224396;75;2924876;-65
2023/11/26 02:20:26;;;;;;;4.10;2.40;;;;;;;-1.13;100.00;96634.47;1224913;75;2915497;-64
2023/11/26 02:22:59;;;;;;;3.30;2.40;;;;;;;-0.98;100.00;96626.03;1224035;75;2925757;-66
2023/11/26 02:25:34;;;;;;;2.50;1.90;;;;;;;-0.95;100.00;96628.63;1225404;75;2918468;-63
2023/11/26 02:28:08;;;;;;;3.50;2.50;;;;;;;-1.11;100.00;96632.13;1224953;75;2920587;-63
2023/11/26 02:30:41;;;;;;;2.85;1.95;;;;;;;-0.97;100.00;96625.59;1224760;75;2919494;-66
2023/11/26 02:33:13;;;;;;;2.75;2.00;;;;;;;-0.85;100.00;96618.75;1224750;75;2923237;-64
2023/11/26 02:35:46;;;;;;;4.10;2.35;;;;;;;-0.88;100.00;96614.25;1219610;75;3187065;-64
2023/11/26 02:38:19;;;;;;;2.45;1.90;;;;;;;-0.96;100.00;96623.66;1225793;75;2915550;-64
2023/11/26 02:40:55;;;;;;;2.80;2.25;;;;;;;-1.14;100.00;96635.63;1225555;75;2924934;-63
2023/11/26 02:43:28;;;;;;;3.15;2.25;;;;;;;-1.33;100.00;96637.25;1224601;75;2918467;-63
2023/11/26 02:46:01;;;;;;;2.95;2.20;;;;;;;-1.29;100.00;96643.28;1225623;75;2912313;-61
2023/11/26 02:48:34;;;;;;;2.95;2.40;;;;;;;-1.55;100.00;96644.31;1225422;75;2915373;-64
2023/11/26 02:51:06;;;;;;;2.80;2.20;;;;;;;-1.61;100.00;96638.69;1225309;75;2919223;-61
2023/11/26 02:53:39;;;;;;;3.15;2.20;;;;;;;-1.74;100.00;96643.97;1225079;75;2917683;-62
2023/11/26 02:56:16;;;;;;;3.80;2.35;;;;;;;-1.64;100.00;96652.94;1224534;75;2915285;-64
2023/11/26 02:58:49;;;;;;;6.85;4.95;;;;;;;-1.58;100.00;96658.56;1225150;75;2924078;-64
2023/11/26 03:01:25;;;;;;;4.85;4.05;;;;;;;-1.33;100.00;96660.66;1225470;75;2920895;-63
2023/11/26 03:03:58;;;;;;;5.00;3.85;;;;;;;-1.57;100.00;96663.50;1224292;75;2919178;-63
2023/11/26 03:06:31;;;;;;;4.05;3.00;;;;;;;-1.56;100.00;96669.66;1225756;75;2918164;-63
2023/11/26 03:09:12;;;;;;;3.70;2.60;;;;;;;-1.64;100.00;96670.97;1225723;75;2920950;-64
2023/11/26 03:14:32;;;;;;;4.65;2.70;;;;;;;-1.92;100.00;96670.44;1225507;75;2910533;-63
2023/11/26 03:17:05;;;;;;;3.05;2.55;;;;;;;-1.76;100.00;96673.13;1225631;75;2920997;-66
2023/11/26 03:19:37;;;;;;;3.15;2.20;;;;;;;-2.08;100.00;96673.09;1224650;75;2920158;-64
2023/11/26 03:22:10;;;;;;;3.10;2.70;;;;;;;-2.29;100.00;96680.38;1225828;75;2911717;-64
2023/11/26 03:24:44;;;;;;;3.50;2.50;;;;;;;-2.15;100.00;96688.13;1225485;75;2912906;-66
2023/11/26 03:27:20;;;;;;;6.05;4.65;;;;;;;-2.18;100.00;96696.28;1224823;75;2923437;-65
2023/11/26 03:29:52;;;;;;;5.10;4.20;;;;;;;-2.08;100.00;96692.59;1225735;75;2919422;-62
2023/11/26 03:32:25;;;;;;;4.15;3.65;;;;;;;-2.15;100.00;96701.53;1225782;75;2920244;-64
2023/11/26 03:34:58;;;;;;;4.80;3.25;;;;;;;-2.04;100.00;96706.69;1225080;75;2922016;-62
2023/11/26 03:37:31;;;;;;;4.50;3.10;;;;;;;-2.12;100.00;96704.56;1225927;75;2925347;-66
2023/11/26 03:40:07;;;;;;;5.85;3.40;;;;;;;-2.28;100.00;96713.31;1225847;75;2915090;-64
2023/11/26 03:42:42;;;;;;;4.15;2.75;;;;;;;-2.08;100.00;96708.69;1225334;75;2932757;-63
2023/11/26 03:45:15;;;;;;;3.40;2.40;;;;;;;-2.06;100.00;96705.59;1226009;75;2924978;-64
2023/11/26 03:47:48;;;;;;;2.80;2.15;;;;;;;-2.19;100.00;96713.50;1225490;75;2917106;-61
2023/11/26 03:50:22;;;;;;;2.45;2.15;;;;;;;-2.10;100.00;96710.28;1214672;75;3716030;-63
2023/11/26 03:52:56;;;;;;;2.25;2.00;;;;;;;-2.15;100.00;96716.88;1226167;75;2916652;-64
2023/11/26 03:55:28;;;;;;;2.15;1.80;;;;;;;-2.28;100.00;96724.81;1224159;75;2921530;-62
2023/11/26 03:58:04;;;;;;;2.20;1.80;;;;;;;-2.44;100.00;96733.50;1225379;75;2960130;-65
2023/11/26 04:00:40;;;;;;;1.80;1.70;;;;;;;-2.47;100.00;96728.22;1226136;75;2922318;-62
2023/11/26 04:03:12;;;;;;;2.05;1.85;;;;;;;-2.50;100.00;96742.44;1224956;75;2918925;-62
2023/11/26 04:05:45;;;;;;;2.15;1.80;;;;;;;-2.41;100.00;96740.72;1226255;75;2920875;-63
2023/11/26 04:08:18;;;;;;;1.65;1.55;;;;;;;-2.43;100.00;96743.09;1224449;83;2942412;-64
2023/11/26 04:10:51;;;;;;;2.30;2.00;;;;;;;-2.49;100.00;96742.03;1226355;75;2915954;-62
2023/11/26 04:13:27;;;;;;;2.10;1.80;;;;;;;-2.53;100.00;96738.66;1225909;75;2921389;-65
2023/11/26 04:16:00;;;;;;;2.45;1.85;;;;;;;-2.75;100.00;96746.31;1225788;75;2910603;-63
2023/11/26 04:18:33;;;;;;;2.25;1.60;;;;;;;-2.65;100.00;96752.66;1226333;75;2922368;-62
2023/11/26 04:21:09;;;;;;;2.15;1.75;;;;;;;-2.78;100.00;96747.16;1225592;75;2920883;-64
2023/11/26 04:23:43;;;;;;;1.60;1.40;;;;;;;-2.63;100.00;96751.09;1225218;75;2913975;-63
2023/11/26 04:26:16;;;;;;;1.90;1.40;;;;;;;-2.68;100.00;96753.47;1225543;75;2915441;-65
2023/11/26 04:28:53;;;;;;;2.15;1.45;;;;;;;-2.73;100.00;96767.34;1225031;75;2928380;-65
2023/11/26 04:31:26;;;;;;;1.70;1.60;;;;;;;-2.93;100.00;96760.03;1225943;75;2919845;-63
2023/11/26 04:34:00;;;;;;;2.10;1.65;;;;;;;-2.80;100.00;96779.69;1224253;75;2914479;-62
2023/11/26 04:36:34;;;;;;;2.15;1.65;;;;;;;-2.87;100.00;96776.38;1223917;75;2918452;-63
2023/11/26 04:39:08;;;;;;;2.65;1.75;;;;;;;-2.83;100.00;96787.78;1225235;75;2923888;-64
2023/11/26 04:41:41;;;;;;;1.75;1.50;;;;;;;-2.71;100.00;96789.13;1225770;75;2924877;-66
2023/11/26 04:44:16;;;;;;;1.75;1.45;;;;;;;-2.83;100.00;96783.19;1225102;75;2928216;-63
2023/11/26 04:46:51;;;;;;;1.85;1.65;;;;;;;-2.77;100.00;96788.81;1224557;75;2931379;-63
2023/11/26 04:49:23;;;;;;;1.85;1.40;;;;;;;-2.72;100.00;96795.63;1223891;75;2924763;-63
2023/11/26 04:51:56;;;;;;;3.30;1.85;;;;;;;-3.00;100.00;96794.94;1224915;75;2921164;-63
2023/11/26 04:54:29;;;;;;;1.90;1.70;;;;;;;-2.75;100.00;96801.81;1224981;75;2929785;-64
2023/11/26 04:57:02;;;;;;;1.80;1.50;;;;;;;-2.70;100.00;96812.81;1224890;75;2920018;-62
2023/11/26 04:59:40;;;;;;;1.55;1.35;;;;;;;-2.62;100.00;96814.22;1224884;75;2928395;-61
2023/11/26 05:02:14;;;;;;;1.80;1.40;;;;;;;-2.65;100.00;96811.59;1224303;75;2921171;-66
2023/11/26 05:04:47;;;;;;;1.60;1.50;;;;;;;-2.62;100.00;96816.91;1224226;75;2925321;-60
2023/11/26 05:07:20;;;;;;;1.30;1.20;;;;;;;-2.49;100.00;96827.03;1224404;75;2919725;-64
2023/11/26 05:09:53;;;;;;;2.55;1.40;;;;;;;-2.47;100.00;96822.78;1224312;75;2923198;-63
2023/11/26 05:12:26;;;;;;;2.15;1.70;;;;;;;-2.46;100.00;96831.56;1223000;75;2926694;-65
2023/11/26 05:15:02;;;;;;;1.70;1.50;;;;;;;-2.47;100.00;96827.38;1223870;75;2916945;-64
2023/11/26 05:17:36;;;;;;;3.20;1.85;;;;;;;-2.40;100.00;96829.94;1223760;75;2926971;-64
2023/11/26 05:20:13;;;;;;;2.85;2.25;;;;;;;-2.50;100.00;96842.38;1222870;75;2925099;-64
2023/11/26 05:22:46;;;;;;;5.15;3.55;;;;;;;-2.56;100.00;96843.97;1223819;75;2923689;-65
2023/11/26 05:25:20;;;;;;;5.00;3.60;;;;;;;-2.62;100.00;96851.00;1223540;75;2928460;-64
2023/11/26 05:27:53;;;;;;;14.75;8.50;;;;;;;-2.52;100.00;96854.66;1224416;75;2921317;-66
2023/11/26 05:30:29;;;;;;;11.80;7.40;;;;;;;-2.46;100.00;96859.13;1223064;75;2933495;-64
2023/11/26 05:33:02;;;;;;;10.65;6.25;;;;;;;-2.55;100.00;96858.13;1223066;75;2930862;-63
2023/11/26 05:35:35;;;;;;;9.15;5.90;;;;;;;-2.82;100.00;96858.94;1223307;75;2921627;-66
2023/11/26 05:38:08;;;;;;;12.80;9.25;;;;;;;-2.96;100.00;96856.47;1222859;75;2920988;-61
2023/11/26 05:40:40;;;;;;;27.75;16.90;;;;;;;-2.65;100.00;96859.81;1222064;75;2919711;-63
2023/11/26 05:43:13;;;;;;;64.30;36.95;;;;;;;-2.78;100.00;96859.66;1224046;75;2932698;-63
2023/11/26 05:45:49;;;;;;;45.80;28.70;;;;;;;-2.65;100.00;96867.84;1223646;75;2922926;-64
2023/11/26 05:48:22;;;;;;;35.60;22.45;;;;;;;-2.68;100.00;96872.09;1223940;75;2919309;-63
2023/11/26 05:50:54;;;;;;;27.25;17.05;;;;;;;-2.66;100.00;96883.19;1222803;75;2958561;-64
2023/11/26 05:53:27;;;;;;;20.15;13.70;;;;;;;-3.03;100.00;96881.41;1223158;75;2909263;-63
2023/11/26 05:56:00;;;;;;;16.80;11.00;;;;;;;-2.94;100.00;96879.00;1223503;75;2924653;-62
2023/11/26 05:58:33;;;;;;;11.85;7.90;;;;;;;-2.92;100.00;96889.31;1222944;75;2924848;-65
2023/11/26 06:01:09;;;;;;;10.25;6.80;;;;;;;-3.05;100.00;96894.47;1223553;75;2908367;-65
2023/11/26 06:03:41;;;;;;;9.25;5.65;;;;;;;-3.11;100.00;96901.44;1223652;75;2917391;-63
2023/11/26 06:06:14;;;;;;;7.95;4.65;;;;;;;-3.01;100.00;96900.50;1224003;75;2922305;-65
2023/11/26 06:08:47;;;;;;;5.95;3.70;;;;;;;-3.05;100.00;96897.91;1223626;75;2925328;-62
2023/11/26 06:11:20;;;;;;;11.45;7.20;;;;;;;-3.25;100.00;96905.81;1224127;75;2893347;-63
2023/11/26 06:13:53;;;;;;;10.40;6.70;;;;;;;-3.02;100.00;96902.44;1224304;75;2921535;-62
2023/11/26 06:16:28;;;;;;;8.45;5.50;;;;;;;-2.92;100.00;96911.50;1223749;75;2933987;-63
2023/11/26 06:19:01;;;;;;;5.60;4.10;;;;;;;-2.92;100.00;96913.41;1224321;75;2916845;-62
2023/11/26 06:21:34;;;;;;;5.05;3.45;;;;;;;-2.86;100.00;96928.63;1224495;75;2925788;-65
2023/11/26 06:24:09;;;;;;;5.10;3.25;;;;;;;-3.00;100.00;96923.47;1224052;75;2926322;-65
2023/11/26 06:26:41;;;;;;;5.40;3.40;;;;;;;-2.94;100.00;96926.44;1224513;75;2922339;-63
2023/11/26 06:29:15;;;;;;;11.10;7.40;;;;;;;-2.86;100.00;96934.00;1224575;75;2949015;-63
2023/11/26 06:31:50;;;;;;;9.10;5.85;;;;;;;-2.68;100.00;96930.28;1223363;75;2916179;-63
2023/11/26 06:34:26;;;;;;;14.65;8.80;;;;;;;-2.69;100.00;96934.91;1224158;75;2928507;-64
2023/11/26 06:36:58;;;;;;;15.55;7.90;;;;;;;-2.66;100.00;96946.72;1224604;75;2936271;-63
2023/11/26 06:39:31;;;;;;;13.25;8.65;;;;;;;-2.66;100.00;96960.13;1224201;75;2922835;-63
2023/11/26 06:42:06;;;;;;;10.90;6.85;;;;;;;-2.36;100.00;96970.78;1224036;75;2917425;-65
2023/11/26 06:44:38;;;;;;;8.00;5.55;;;;;;;-2.17;100.00;96974.66;1222499;75;2930947;-64
2023/11/26 06:47:14;;;;;;;5.80;4.05;;;;;;;-1.96;100.00;96972.81;1223264;75;2914485;-65
2023/11/26 06:49:47;;;;;;;6.35;4.05;;;;;;;-1.77;100.00;96979.41;1223127;75;2924406;-61
2023/11/26 06:52:20;;;;;;;4.65;3.50;;;;;;;-1.68;100.00;96985.00;1223947;75;2931286;-65
2023/11/26 06:54:53;;;;;;;3.85;3.20;;;;;;;-1.61;100.00;96987.56;1223621;75;2923953;-65
2023/11/26 06:57:26;;;;;;;4.65;3.00;;;;;;;-1.54;100.00;97000.84;1223860;75;2919885;-64
2023/11/26 06:59:58;;;;;;;4.35;3.00;;;;;;;-1.51;100.00;96999.28;1224345;75;2901337;-63
2023/11/26 07:02:34;;;;;;;4.20;3.00;;;;;;;-1.59;100.00;97009.38;1224751;75;2926269;-61
2023/11/26 07:05:08;;;;;;;9.15;5.40;;;;;;;-1.44;100.00;97014.47;1224134;75;2928703;-65
2023/11/26 07:07:41;;;;;;;28.30;11.75;;;;;;;-1.55;100.00;97012.75;1224410;75;2918467;-66
2023/11/26 07:10:14;;;;;;;13.90;7.70;;;;;;;-1.43;100.00;97011.38;1224262;75;2931513;-64
2023/11/26 07:12:47;;;;;;;11.60;5.85;;;;;;;-1.38;100.00;97013.59;1223157;75;2927809;-62
2023/11/26 07:15:20;;;;;;;7.00;4.30;;;;;;;-1.17;100.00;97027.81;1224586;75;2915618;-63
2023/11/26 07:17:55;;;;;;;5.25;3.90;;;;;;;-0.97;100.00;97028.53;1223837;75;2915878;-62
2023/11/26 07:20:28;;;;;;;4.65;3.05;;;;;;;-0.83;100.00;97026.75;1224185;75;2911323;-66
2023/11/26 07:23:01;;;;;;;4.30;2.80;;;;;;;-0.72;100.00;97020.00;1224766;75;2915973;-65
2023/11/26 07:25:34;;;;;;;4.15;2.70;;;;;;;-0.50;100.00;97014.94;1223638;75;2919006;-64
2023/11/26 07:28:08;;;;;;;3.15;2.35;;;;;;;-0.30;100.00;97022.94;1223963;75;2925571;-65
2023/11/26 07:30:41;;;;;;;2.30;1.85;;;;;;;-0.21;100.00;97025.06;1224397;75;2921659;-66
2023/11/26 07:33:16;;;;;;;5.15;3.55;;;;;;;-0.51;100.00;97034.16;1224309;75;2913901;-64
2023/11/26 07:35:49;;;;;;;7.35;4.90;;;;;;;-0.40;100.00;97036.63;1223328;83;2915784;-63
2023/11/26 07:38:22;;;;;;;15.00;10.40;;;;;;;-0.13;100.00;97039.84;1224145;75;2925811;-62
2023/11/26 07:40:55;;;;;;;11.45;8.20;;;;;;;0.13;100.00;97042.72;1223775;75;2919186;-64
2023/11/26 07:43:28;;;;;;;10.65;7.30;;;;;;;-0.02;100.00;97047.69;1224243;75;2918518;-62
2023/11/26 07:46:01;;;;;;;7.25;5.20;;;;;;;0.20;100.00;97053.31;1225375;75;2924102;-68
2023/11/26 07:48:37;;;;;;;6.20;4.40;;;;;;;0.31;100.00;97045.72;1224799;75;2921595;-65
2023/11/26 07:51:10;;;;;;;4.90;3.65;;;;;;;0.41;100.00;97054.75;1224893;75;2924486;-65
2023/11/26 07:53:43;;;;;;;14.05;7.95;;;;;;;0.28;100.00;97060.03;1224990;75;2925218;-65
2023/11/26 07:56:16;;;;;;;10.25;7.05;;;;;;;0.25;100.00;97057.44;1225292;75;2920780;-61
2023/11/26 07:58:49;;;;;;;21.35;13.15;;;;;;;0.39;100.00;97057.84;1225093;75;2926293;-63
2023/11/26 08:01:22;;;;;;;7.70;4.35;;;;;;;0.65;100.00;97052.59;1224178;75;2918176;-60
2023/11/26 08:03:59;;;;;;;3.55;2.30;;;;;;;0.85;100.00;97065.94;1224792;75;2926136;-65
2023/11/26 08:06:32;;;;;;;2.50;1.70;;;;;;;1.17;100.00;97067.78;1224640;75;2917346;-62
2023/11/26 08:09:08;;;;;;;6.25;4.25;;;;;;;0.67;100.00;97073.72;1225171;75;2935079;-66
2023/11/26 08:11:46;;;;;;;8.05;5.70;;;;;;;0.74;100.00;97076.97;1225946;75;2875744;-64
2023/11/26 08:14:19;;;;;;;7.40;5.40;;;;;;;0.81;100.00;97076.06;1225530;75;2936604;-64
2023/11/26 08:16:51;;;;;;;7.85;5.45;;;;;;;0.95;100.00;97074.94;1225677;75;2922802;-63
2023/11/26 08:19:28;;;;;;;7.60;5.30;;;;;;;1.06;100.00;97072.72;1221092;75;3209712;-61
2023/11/26 08:22:01;;;;;;;8.65;5.85;;;;;;;1.12;100.00;97076.38;1225780;75;2918708;-64
2023/11/26 08:24:33;;;;;;;7.25;5.60;;;;;;;1.52;100.00;97081.47;1224565;75;2917637;-63
2023/11/26 08:27:07;;;;;;;4.50;2.75;;;;;;;2.03;98.82;97091.53;1224373;75;2914514;-65
2023/11/26 08:29:42;;;;;;;2.20;1.60;;;;;;;2.05;97.88;97092.63;1224831;75;2925743;-62
2023/11/26 08:32:15;;;;;;;2.55;1.55;;;;;;;2.23;96.38;97097.47;1224670;75;2919346;-66
2023/11/26 08:34:51;;;;;;;1.40;1.15;;;;;;;2.79;91.60;97096.09;1225342;75;2918636;-62
2023/11/26 08:37:24;;;;;;;2.00;1.05;;;;;;;3.02;90.06;97096.88;1225432;75;2927430;-64
2023/11/26 08:39:57;;;;;;;1.65;1.10;;;;;;;3.40;88.12;97097.44;1224736;75;2917029;-58
2023/11/26 08:42:32;;;;;;;1.20;1.10;;;;;;;3.45;84.65;97096.13;1225776;75;2911206;-67
2023/11/26 08:45:08;;;;;;;0.80;0.80;;;;;;;3.55;81.54;97099.66;1224935;75;2920343;-62
2023/11/26 08:47:43;;;;;;;1.85;1.30;;;;;;;3.89;78.03;97108.84;1224134;75;2925766;-65
2023/11/26 08:50:18;;;;;;;3.60;2.25;;;;;;;3.68;83.63;97102.25;1225423;75;2914161;-61
2023/11/26 08:52:53;;;;;;;9.00;6.50;;;;;;;4.39;86.42;97096.09;1225447;75;2953748;-66
2023/11/26 08:55:27;;;;;;;11.35;8.05;;;;;;;4.14;86.21;97100.53;1217126;75;3410216;-64
2023/11/26 12:13:02;;;;;;;2.85;0.80;;;;;;;3.66;53.93;97173.09;1251046;75;2805038;-63
2023/11/26 12:15:38;;;;;;;0.75;0.75;;;;;;;3.79;53.56;97181.91;1224989;67;2926287;-63
2023/11/26 12:18:11;;;;;;;0.70;0.70;;;;;;;3.97;53.11;97181.28;1224720;75;2924166;-66
2023/11/26 12:20:49;;;;;;;2.15;0.75;;;;;;;3.87;53.79;97173.53;1224071;75;2947670;-64
2023/11/26 12:23:35;;;;;;;6.50;1.20;;;;;;;3.88;53.96;97189.34;1225322;67;2929080;-66
2023/11/26 12:26:08;;;;;;;2.35;0.60;;;;;;;4.04;53.55;97193.78;1224889;75;2923058;-66
2023/11/26 12:28:50;;;;;;;1.75;1.10;;;;;;;3.88;52.84;97188.59;1225200;75;2923621;-69
2023/11/26 12:31:24;;;;;;;1.60;0.75;;;;;;;7.13;47.67;97187.66;1225122;75;2925835;-65
2023/11/26 12:33:58;;;;;;;1.75;0.65;;;;;;;9.20;43.88;97186.13;1225521;75;2916703;-65
2023/11/26 12:36:31;;;;;;;1.15;0.75;;;;;;;10.44;41.61;97190.13;1225372;75;2919768;-66
2023/11/26 12:39:06;;;;;;;0.95;0.85;;;;;;;9.97;42.17;97182.00;1225219;75;2922483;-62
2023/11/26 12:41:38;;;;;;;1.25;0.95;;;;;;;8.48;43.14;97184.63;1225140;75;2927380;-64
2023/11/26 12:44:14;;;;;;;0.80;0.80;;;;;;;10.51;40.61;97186.97;1223459;75;3018984;-66
2023/11/26 12:46:47;;;;;;;2.10;1.00;;;;;;;12.17;37.72;97179.66;1225148;75;2922222;-65
2023/11/26 12:49:22;;;;;;;0.65;0.60;;;;;;;7.83;43.03;97183.78;1224567;75;2927337;-65
2023/11/26 12:51:58;;;;;;;4.00;0.70;;;;;;;8.91;43.34;97187.00;1224864;75;2920603;-63
2023/11/26 12:54:31;;;;;;;1.10;0.80;;;;;;;9.81;42.30;97188.81;1224356;75;2926307;-64
2023/11/26 12:57:04;;;;;;;0.90;0.50;;;;;;;9.78;40.93;97187.03;1224719;75;2921115;-63
2023/11/26 12:59:51;;;;;;;0.80;0.50;;;;;;;10.06;40.08;97189.28;1224659;75;2930374;-65
2023/11/26 13:02:25;;;;;;;1.60;0.80;;;;;;;9.50;41.62;97207.81;1225288;75;2928834;-68
2023/11/26 13:04:58;;;;;;;0.55;0.50;;;;;;;10.19;41.09;97200.59;1225937;75;2926639;-65
2023/11/26 13:07:41;;;;;;;2.80;1.20;;;;;;;8.31;43.49;97206.16;1225394;75;2926084;-65
2023/11/26 13:10:14;;;;;;;0.40;0.40;;;;;;;9.41;41.72;97206.00;1225782;75;2921987;-64
2023/11/26 13:12:47;;;;;;;2.90;0.90;;;;;;;8.93;41.05;97209.84;1225271;75;2931159;-65
2023/11/26 13:15:22;;;;;;;0.80;0.50;;;;;;;7.73;43.10;97209.63;1224144;75;2931755;-64
2023/11/26 13:17:57;;;;;;;1.00;0.70;;;;;;;11.09;39.08;97208.72;1225808;75;2923974;-62
2023/11/26 13:20:30;;;;;;;0.40;0.40;;;;;;;10.90;39.22;97211.09;1225409;75;2915785;-64
2023/11/26 13:23:03;;;;;;;1.45;0.60;;;;;;;8.61;42.84;97213.59;1224769;75;2921524;-69
2023/11/26 13:25:37;;;;;;;2.00;0.75;;;;;;;8.13;43.30;97213.78;1223724;75;2926391;-64
2023/11/26 13:28:10;;;;;;;1.80;0.80;;;;;;;6.29;46.46;97207.56;1223780;75;2929012;-66
2023/11/26 13:30:45;;;;;;;1.10;0.80;;;;;;;5.62;47.87;97214.72;1224455;75;2907384;-66
2023/11/26 13:33:19;;;;;;;1.45;0.60;;;;;;;5.53;48.46;97221.66;1223526;75;2927161;-64
2023/11/26 13:35:53;;;;;;;1.25;0.70;;;;;;;5.00;49.73;97232.72;1224086;75;2925760;-65
2023/11/26 13:38:26;;;;;;;1.30;0.80;;;;;;;5.00;49.47;97237.41;1224166;75;2922715;-69
2023/11/26 13:40:59;;;;;;;0.80;0.60;;;;;;;5.29;48.83;97229.63;1225105;75;2918213;-63
2023/11/26 13:43:32;;;;;;;3.00;1.95;;;;;;;5.07;49.55;97228.97;1224500;75;2915222;-68
2023/11/26 13:46:08;;;;;;;4.00;2.30;;;;;;;5.02;50.16;97235.00;1225405;75;2916633;-65
2023/11/26 13:48:41;;;;;;;2.65;1.40;;;;;;;5.15;50.50;97235.63;1225020;75;2917430;-64
2023/11/26 13:51:18;;;;;;;1.25;0.85;;;;;;;4.97;49.12;97249.91;1225039;75;2914436;-63
2023/11/26 13:53:51;;;;;;;1.30;0.90;;;;;;;4.97;49.79;97238.31;1225183;75;2926496;-65
2023/11/26 13:56:25;;;;;;;2.35;1.60;;;;;;;4.29;51.72;97246.31;1224488;75;2913600;-64
2023/11/26 13:58:58;;;;;;;1.75;1.30;;;;;;;4.51;51.00;97266.00;1224099;75;2922967;-64
2023/11/26 14:01:34;;;;;;;1.50;0.95;;;;;;;4.66;50.60;97260.78;1225309;75;2922243;-66
2023/11/26 14:04:07;;;;;;;1.75;1.00;;;;;;;4.58;50.35;97260.31;1225147;75;2914200;-65
2023/11/26 14:06:40;;;;;;;1.30;1.00;;;;;;;4.05;51.32;97260.31;1224017;75;2917736;-64
2023/11/26 14:09:15;;;;;;;0.75;0.75;;;;;;;4.09;50.34;97252.03;1224577;75;2920582;-64
2023/11/26 14:11:47;;;;;;;1.45;0.90;;;;;;;4.12;50.32;97257.34;1224388;75;2924901;-63
2023/11/26 14:14:20;;;;;;;1.60;0.70;;;;;;;4.26;48.91;97256.81;1224295;75;2929125;-63
2023/11/26 14:16:57;;;;;;;1.45;0.80;;;;;;;4.25;49.92;97259.97;1225632;75;2915918;-65
2023/11/26 14:19:32;;;;;;;0.80;0.75;;;;;;;4.29;48.91;97268.72;1224741;75;2919791;-63
2023/11/26 14:22:05;;;;;;;0.90;0.80;;;;;;;4.17;49.30;97280.41;1224046;75;2916105;-64
2023/11/26 14:24:38;;;;;;;2.95;0.90;;;;;;;3.93;50.96;97275.41;1223370;75;2917281;-64
2023/11/26 14:27:11;;;;;;;1.25;0.80;;;;;;;3.86;51.46;97281.06;1224082;75;2915636;-65
2023/11/26 14:29:44;;;;;;;1.60;1.00;;;;;;;3.80;52.72;97282.81;1224874;75;2922388;-62
2023/11/26 14:32:20;;;;;;;1.95;1.00;;;;;;;3.87;52.23;97279.13;1225124;75;2933890;-64
2023/11/26 14:34:53;;;;;;;1.10;0.80;;;;;;;3.71;51.32;97285.47;1224103;75;2920178;-64
2023/11/26 14:37:26;;;;;;;2.20;1.35;;;;;;;3.75;51.53;97286.88;1224987;75;2922948;-63
2023/11/26 14:39:59;;;;;;;1.45;0.80;;;;;;;3.71;51.37;97296.31;1224374;75;2904936;-67
2023/11/26 14:42:33;;;;;;;2.65;1.70;;;;;;;3.65;52.01;97306.16;1225103;75;2914997;-64
2023/11/26 14:45:07;;;;;;;6.00;3.25;;;;;;;3.83;52.22;97303.63;1224975;75;2914285;-64
2023/11/26 14:47:45;;;;;;;5.25;2.30;;;;;;;3.71;52.60;97307.88;1224656;75;2921944;-65
2023/11/26 14:50:18;;;;;;;1.80;1.30;;;;;;;3.97;52.20;97315.91;1224762;75;2918353;-66
2023/11/26 14:52:52;;;;;;;6.80;4.40;;;;;;;3.82;53.22;97321.03;1225898;75;2912608;-65
2023/11/26 14:55:25;;;;;;;5.75;3.30;;;;;;;4.07;52.98;97317.50;1226009;75;2919914;-64
2023/11/26 14:57:58;;;;;;;4.30;2.85;;;;;;;3.92;53.60;97321.88;1224841;75;2915829;-64
2023/11/26 15:00:31;;;;;;;2.65;1.70;;;;;;;3.54;52.77;97315.41;1225515;75;2909961;-65